Terminal Aerodrome Forecast
Issued by NWS

Current Version | Previous Version | Text Only | Print | Product List | Glossary On
Versions: 1 2 3 4 5 6 7 8 9 10 11 12 13 14 15
016
FTUS46 KSEW 232021 AAA
TAFCLM
TAF AMD
KCLM 232021Z 2320/2418 02004KT P6SM -RA SCT015 OVC050
      TEMPO 2320/2324 3SM -RA BR BKN015 OVC050
     FM240000 12004KT 6SM -RA SCT008 BKN025 OVC045
     FM240900 22003KT P6SM VCSH SCT008 OVC050=

USA.gov is the U.S. government's official web portal to all federal, state and local government web resources and services.